Terminal Aerodrome Forecast
Issued by NWS Omaha/Valley, NE

Home | Current Version | Previous Version | Text Only | Print | Product List | Glossary On
Versions: 1 2 3 4 5 6 7 8 9 10 11 12 13 14 15
000
FTUS43 KOAX 132329
TAFLNK
TAF
KLNK 132329Z 1400/1424 33010KT P6SM SCT040
     FM141700 31006KT P6SM OVC030 PROB30 1418/1424 5SM -RASN OVC015=

USA.gov is the U.S. government's official web portal to all federal, state and local government web resources and services.